createdAt,value
2022-08-16T00:02:30.310Z,79.19
2022-08-16T00:04:59.602Z,79.07
2022-08-16T00:07:30.598Z,79.60
2022-08-16T00:09:59.067Z,79.66
2022-08-16T00:12:28.556Z,80.04
2022-08-16T00:14:57.370Z,80.00
2022-08-16T00:17:28.162Z,80.14
2022-08-16T00:19:55.989Z,80.00
2022-08-16T00:22:25.366Z,80.00
2022-08-16T00:24:54.560Z,80.11
2022-08-16T00:27:23.080Z,80.30
2022-08-16T00:30:08.401Z,80.33
2022-08-16T00:32:38.468Z,80.68
2022-08-16T00:35:15.251Z,80.89
2022-08-16T00:37:57.451Z,81.29
2022-08-16T00:40:43.838Z,80.79
2022-08-16T00:43:43.174Z,81.02
2022-08-16T00:46:32.788Z,81.12
2022-08-16T00:49:02.813Z,81.30
2022-08-16T00:51:30.462Z,81.30
2022-08-16T00:53:57.839Z,81.50
2022-08-16T00:56:58.010Z,81.64
2022-08-16T00:59:19.224Z,81.39
2022-08-16T01:01:46.654Z,81.41
2022-08-16T01:04:29.070Z,81.67
2022-08-16T01:07:02.345Z,81.61
2022-08-16T01:09:37.315Z,81.90
2022-08-16T01:12:08.457Z,81.95
2022-08-16T01:14:50.774Z,82.04
2022-08-16T01:17:24.186Z,81.91
2022-08-16T01:19:59.399Z,82.21
2022-08-16T01:23:01.723Z,81.95
2022-08-16T01:25:37.052Z,82.07
2022-08-16T01:28:09.771Z,82.13
2022-08-16T01:30:49.660Z,82.74
2022-08-16T01:33:19.293Z,82.53
2022-08-16T01:36:11.991Z,82.47
2022-08-16T01:38:48.849Z,82.30
2022-08-16T01:41:21.522Z,82.45
2022-08-16T01:43:53.682Z,82.35
2022-08-16T01:46:39.567Z,82.54
2022-08-16T01:49:43.468Z,82.83
2022-08-16T01:52:29.301Z,83.02
2022-08-16T01:54:57.361Z,83.12
2022-08-16T01:57:24.725Z,83.12
2022-08-16T01:59:54.743Z,82.94
2022-08-16T02:02:28.394Z,82.52
2022-08-16T02:04:56.198Z,82.58
2022-08-16T02:07:24.718Z,83.45
2022-08-16T02:09:57.267Z,83.65
2022-08-16T02:12:50.155Z,83.75
2022-08-16T02:15:16.959Z,84.19
2022-08-16T02:17:43.954Z,84.24
2022-08-16T02:20:12.360Z,84.29
2022-08-16T02:22:39.985Z,84.35
2022-08-16T02:25:10.879Z,84.48
2022-08-16T02:27:42.812Z,84.65
2022-08-16T02:30:37.452Z,84.41
2022-08-16T02:33:06.212Z,84.25
2022-08-16T02:35:34.274Z,84.29
2022-08-16T02:38:16.885Z,83.94
2022-08-16T02:40:45.781Z,84.20
2022-08-16T02:43:13.577Z,84.24
2022-08-16T02:45:41.505Z,84.20
2022-08-16T02:48:30.563Z,84.03
2022-08-16T02:51:06.784Z,84.50
2022-08-16T02:53:44.649Z,84.43
2022-08-16T02:56:15.161Z,84.13
2022-08-16T02:58:44.223Z,85.13
2022-08-16T03:01:24.241Z,84.84
2022-08-16T03:04:29.628Z,84.63
2022-08-16T03:06:48.019Z,84.53
2022-08-16T03:09:18.104Z,84.49
2022-08-16T03:11:47.328Z,84.35
2022-08-16T03:14:14.679Z,84.17
2022-08-16T03:16:59.693Z,84.11
2022-08-16T03:19:48.770Z,84.19
2022-08-16T03:22:19.447Z,84.00
2022-08-16T03:24:57.546Z,84.13
2022-08-16T03:27:25.188Z,84.00
2022-08-16T03:29:59.970Z,83.90
2022-08-16T03:32:26.739Z,84.07
2022-08-16T03:34:53.500Z,83.62
2022-08-16T03:37:20.269Z,83.84
2022-08-16T03:39:47.514Z,83.46
2022-08-16T03:42:20.453Z,83.57
2022-08-16T03:44:50.168Z,83.40
2022-08-16T03:47:19.035Z,83.24
2022-08-16T03:49:51.743Z,82.04
2022-08-16T03:52:23.367Z,82.34
2022-08-16T03:54:57.783Z,82.04
2022-08-16T03:57:31.841Z,82.31
2022-08-16T04:00:35.042Z,82.64
2022-08-16T04:03:08.712Z,81.73
2022-08-16T04:05:39.180Z,81.14
2022-08-16T04:08:24.098Z,80.82
2022-08-16T04:10:54.011Z,81.30
2022-08-16T04:14:01.515Z,80.36
2022-08-16T04:16:09.481Z,81.30
2022-08-16T04:18:54.391Z,81.29
2022-08-16T04:21:31.022Z,81.01
2022-08-16T04:23:59.598Z,81.08
2022-08-16T04:26:31.233Z,80.96
2022-08-16T04:29:15.192Z,80.76
2022-08-16T04:31:56.341Z,80.59
2022-08-16T04:34:27.474Z,80.33
2022-08-16T04:36:56.770Z,80.00
2022-08-16T04:39:24.495Z,79.93
2022-08-16T04:42:11.205Z,79.83
2022-08-16T04:44:53.434Z,79.87
2022-08-16T04:47:24.637Z,79.81
2022-08-16T04:49:52.679Z,79.53
2022-08-16T04:52:34.468Z,79.09
2022-08-16T04:55:19.743Z,78.27
2022-08-16T04:57:53.436Z,78.21
2022-08-16T05:00:31.969Z,78.15
2022-08-16T05:03:11.145Z,77.92
2022-08-16T05:05:45.307Z,77.31
2022-08-16T05:08:30.727Z,76.73
2022-08-16T05:11:05.761Z,76.48
2022-08-16T05:13:40.768Z,76.44
2022-08-16T05:16:20.344Z,76.86
2022-08-16T05:18:51.725Z,77.33
2022-08-16T05:21:20.660Z,77.34
2022-08-16T05:23:55.527Z,77.70
2022-08-16T05:26:28.089Z,77.48
2022-08-16T05:28:57.235Z,76.91
2022-08-16T05:31:29.664Z,76.63
2022-08-16T05:33:59.736Z,76.66
2022-08-16T05:36:33.883Z,76.63
2022-08-16T05:39:08.763Z,76.56
2022-08-16T05:41:45.186Z,76.53
2022-08-16T05:44:22.523Z,76.37
2022-08-16T05:47:00.244Z,75.79
2022-08-16T05:49:39.906Z,75.87
2022-08-16T05:52:13.591Z,76.09
2022-08-16T05:54:47.672Z,75.82
2022-08-16T05:57:17.257Z,74.69
2022-08-16T05:59:47.321Z,74.23
2022-08-16T06:02:18.306Z,72.88
2022-08-16T06:04:45.751Z,71.58
2022-08-16T06:07:25.047Z,70.16
2022-08-16T06:09:59.648Z,68.84
2022-08-16T06:12:29.059Z,67.32
2022-08-16T06:15:07.644Z,66.56
2022-08-16T06:17:41.525Z,66.15
2022-08-16T06:20:23.721Z,65.20
2022-08-16T06:23:03.068Z,63.83
2022-08-16T06:25:36.474Z,63.74
2022-08-16T06:28:09.631Z,62.51
2022-08-16T06:30:43.897Z,58.99
2022-08-16T06:33:22.273Z,57.18
2022-08-16T06:35:50.715Z,57.04
2022-08-16T06:38:33.413Z,54.84
2022-08-16T06:41:06.535Z,54.52
2022-08-16T06:43:41.999Z,54.82
2022-08-16T06:46:22.038Z,54.22
2022-08-16T06:48:51.848Z,54.01
2022-08-16T06:51:18.722Z,53.62
2022-08-16T06:53:46.089Z,57.00
2022-08-16T06:56:14.747Z,57.44
2022-08-16T06:58:51.944Z,55.84
2022-08-16T07:01:25.593Z,55.91
2022-08-16T07:04:10.288Z,56.03
2022-08-16T07:06:37.853Z,54.74
2022-08-16T07:09:09.759Z,55.90
2022-08-16T07:11:48.105Z,55.19
2022-08-16T07:14:25.893Z,57.45
2022-08-16T07:16:55.796Z,58.09
2022-08-16T07:19:33.495Z,57.55
2022-08-16T07:22:38.285Z,57.57
2022-08-16T07:25:00.252Z,56.07
2022-08-16T07:27:27.617Z,56.22
2022-08-16T07:29:56.266Z,55.85
2022-08-16T07:32:29.744Z,56.58
2022-08-16T07:34:58.946Z,55.71
2022-08-16T07:37:25.758Z,56.89
2022-08-16T07:39:54.601Z,57.89
2022-08-16T07:42:28.311Z,57.01
2022-08-16T07:45:07.484Z,57.24
2022-08-16T07:47:37.412Z,57.41
2022-08-16T07:50:07.785Z,55.49
2022-08-16T07:52:35.173Z,55.35
2022-08-16T07:55:08.034Z,55.69
2022-08-16T07:57:44.403Z,56.52
2022-08-16T08:00:25.748Z,56.32
2022-08-16T08:02:55.465Z,57.11
2022-08-16T08:05:35.302Z,57.02
2022-08-16T08:08:11.935Z,56.69
2022-08-16T08:10:52.002Z,56.93
2022-08-16T08:13:18.788Z,56.49
2022-08-16T08:15:53.050Z,57.06
2022-08-16T08:18:30.212Z,57.04
2022-08-16T08:20:59.146Z,56.90
2022-08-16T08:23:27.641Z,56.86
2022-08-16T08:25:55.884Z,56.94
2022-08-16T08:28:23.444Z,57.79
2022-08-16T08:31:01.390Z,56.74
2022-08-16T08:33:31.378Z,56.42
2022-08-16T08:36:00.817Z,55.75
2022-08-16T08:38:45.218Z,56.23
2022-08-16T08:41:18.203Z,56.93
2022-08-16T08:43:46.253Z,56.87
2022-08-16T08:46:17.838Z,55.42
2022-08-16T08:49:01.977Z,56.42
2022-08-16T08:51:31.861Z,55.48
2022-08-16T08:54:09.483Z,55.77
2022-08-16T08:56:37.779Z,55.88
2022-08-16T08:59:20.347Z,55.64
2022-08-16T09:01:57.441Z,54.33
2022-08-16T09:04:26.882Z,53.97
2022-08-16T09:06:55.600Z,53.72
2022-08-16T09:09:23.459Z,53.09
2022-08-16T09:11:53.456Z,51.18
2022-08-16T09:14:25.163Z,50.31
2022-08-16T09:17:02.417Z,49.85
2022-08-16T09:19:33.000Z,50.48
2022-08-16T09:22:00.939Z,48.92
2022-08-16T09:24:46.591Z,49.89
2022-08-16T09:27:15.991Z,50.18
2022-08-16T09:29:45.297Z,49.83
2022-08-16T09:32:28.610Z,49.96
2022-08-16T09:34:58.461Z,49.34
2022-08-16T09:37:29.608Z,49.66
2022-08-16T09:40:01.199Z,50.32
2022-08-16T09:42:29.441Z,49.96
2022-08-16T09:45:11.272Z,50.04
2022-08-16T09:47:56.965Z,51.59
2022-08-16T09:50:36.755Z,50.33
2022-08-16T09:53:24.519Z,49.84
2022-08-16T09:55:56.817Z,48.82
2022-08-16T09:58:40.596Z,48.34
2022-08-16T10:01:18.973Z,47.01
2022-08-16T10:04:02.595Z,43.77
2022-08-16T10:06:33.454Z,43.90
2022-08-16T10:09:08.334Z,43.32
2022-08-16T10:12:11.443Z,43.90
2022-08-16T10:14:46.507Z,43.29
2022-08-16T10:17:13.535Z,41.98
2022-08-16T10:19:41.683Z,41.24
2022-08-16T10:22:13.045Z,41.51
2022-08-16T10:24:56.218Z,41.78
2022-08-16T10:27:47.014Z,42.65
2022-08-16T10:30:26.008Z,44.37
2022-08-16T10:32:56.177Z,43.77
2022-08-16T10:35:23.513Z,44.45
2022-08-16T10:37:52.364Z,43.36
2022-08-16T10:40:28.967Z,43.32
2022-08-16T10:43:00.340Z,43.58
2022-08-16T10:45:36.995Z,45.31
2022-08-16T10:48:27.251Z,43.02
2022-08-16T10:50:58.641Z,40.30
2022-08-16T10:53:33.030Z,40.23
2022-08-16T10:56:02.435Z,39.79
2022-08-16T10:58:33.997Z,41.87
2022-08-16T11:03:57.292Z,39.66
2022-08-16T11:06:26.908Z,38.57
2022-08-16T11:14:30.755Z,42.11
2022-08-16T11:17:09.061Z,40.19
2022-08-16T11:20:00.738Z,39.40
2022-08-16T11:22:47.038Z,37.34
2022-08-16T11:25:15.177Z,36.33
2022-08-16T11:28:01.255Z,34.78
2022-08-16T11:30:38.834Z,35.06
2022-08-16T11:33:07.041Z,35.30
2022-08-16T11:38:47.511Z,32.49
2022-08-16T11:41:10.737Z,33.44
2022-08-16T11:43:39.309Z,32.92
2022-08-16T11:46:34.173Z,34.01
2022-08-16T11:48:57.002Z,32.37
2022-08-16T11:51:23.729Z,32.96
2022-08-16T11:53:51.703Z,32.56
2022-08-16T11:56:28.571Z,32.74
2022-08-16T11:59:06.518Z,31.64
2022-08-16T12:01:44.165Z,33.04
2022-08-16T12:04:22.368Z,33.75
2022-08-16T12:06:50.140Z,34.95
2022-08-16T12:09:21.863Z,36.86
2022-08-16T12:11:52.526Z,37.39
2022-08-16T12:14:22.978Z,35.84
2022-08-16T12:16:55.571Z,35.82
2022-08-16T12:19:33.454Z,35.79
2022-08-16T12:22:01.627Z,36.53
2022-08-16T12:24:33.727Z,37.66
2022-08-16T12:27:02.206Z,38.75
2022-08-16T12:29:30.102Z,37.55
2022-08-16T12:32:00.892Z,37.80
2022-08-16T12:34:39.800Z,38.59
2022-08-16T12:37:18.120Z,37.75
2022-08-16T12:39:50.894Z,35.26
2022-08-16T12:42:19.485Z,33.92
2022-08-16T12:44:50.363Z,33.31
2022-08-16T12:47:36.234Z,34.79
2022-08-16T12:50:03.927Z,33.74
2022-08-16T12:52:33.691Z,34.28
2022-08-16T12:55:03.118Z,35.16
2022-08-16T12:57:36.252Z,35.65
2022-08-16T13:00:13.150Z,35.89
2022-08-16T13:02:54.012Z,35.39
2022-08-16T13:05:22.216Z,35.56
2022-08-16T13:07:51.300Z,35.88
2022-08-16T13:10:36.805Z,36.04
2022-08-16T13:13:05.927Z,36.69
2022-08-16T13:15:36.158Z,36.47
2022-08-16T13:18:24.099Z,33.97
2022-08-16T13:20:54.325Z,33.32
2022-08-16T13:23:23.294Z,32.76
2022-08-16T13:25:51.469Z,34.24
2022-08-16T13:28:22.463Z,33.95
2022-08-16T13:30:53.599Z,35.19
2022-08-16T13:33:36.987Z,35.19
2022-08-16T13:36:17.008Z,36.21
2022-08-16T13:38:53.046Z,36.41
2022-08-16T13:41:21.318Z,37.92
2022-08-16T13:43:55.084Z,38.02
2022-08-16T13:46:26.280Z,38.82
2022-08-16T13:48:53.427Z,39.68
2022-08-16T13:51:23.920Z,40.48
2022-08-16T13:54:02.613Z,41.39
2022-08-16T13:56:39.655Z,41.74
2022-08-16T13:59:16.578Z,42.03
2022-08-16T14:01:55.607Z,42.34
2022-08-16T14:04:31.955Z,42.61
2022-08-16T14:07:01.353Z,42.35
2022-08-16T14:09:30.247Z,42.55
2022-08-16T14:11:58.556Z,42.93
2022-08-16T14:14:29.098Z,43.25
2022-08-16T14:17:02.281Z,43.39
2022-08-16T14:19:30.072Z,43.72
2022-08-16T14:22:14.429Z,44.24
2022-08-16T14:24:46.839Z,43.68
2022-08-16T14:27:19.513Z,44.40
2022-08-16T14:29:49.896Z,43.87
2022-08-16T14:32:33.069Z,43.23
2022-08-16T14:35:04.361Z,44.61
2022-08-16T14:37:31.849Z,45.24
2022-08-16T14:39:59.027Z,44.20
2022-08-16T14:42:26.775Z,44.16
2022-08-16T14:44:54.203Z,44.05
2022-08-16T14:47:22.428Z,44.56
2022-08-16T14:49:49.776Z,43.44
2022-08-16T14:52:44.552Z,42.39
2022-08-16T14:55:10.829Z,41.81
2022-08-16T14:57:39.840Z,41.95
2022-08-16T15:00:11.014Z,42.08
2022-08-16T15:02:39.246Z,43.31
2022-08-16T15:05:09.488Z,43.02
2022-08-16T15:07:36.633Z,42.74
2022-08-16T15:10:21.588Z,43.07
2022-08-16T15:12:56.319Z,43.09
2022-08-16T15:15:28.067Z,42.42
2022-08-16T15:17:56.976Z,40.88
2022-08-16T15:20:30.069Z,39.49
2022-08-16T15:22:58.569Z,38.28
2022-08-16T15:25:43.867Z,37.84
2022-08-16T15:28:30.701Z,37.95
2022-08-16T15:31:03.829Z,37.93
2022-08-16T15:33:34.156Z,38.14
2022-08-16T15:36:02.655Z,38.80
2022-08-16T15:38:57.785Z,39.78
2022-08-16T15:41:39.383Z,40.30
2022-08-16T15:44:12.995Z,41.71
2022-08-16T15:46:56.389Z,41.87
2022-08-16T15:49:37.899Z,42.39
2022-08-16T15:52:24.852Z,43.09
2022-08-16T15:54:58.150Z,43.85
2022-08-16T15:57:26.827Z,44.06
2022-08-16T15:59:55.800Z,44.10
2022-08-16T16:02:30.985Z,44.79
2022-08-16T16:05:07.324Z,45.62
2022-08-16T16:07:37.363Z,46.03
2022-08-16T16:10:13.530Z,46.33
2022-08-16T16:12:51.582Z,46.05
2022-08-16T16:15:29.469Z,46.57
2022-08-16T16:17:56.734Z,47.44
2022-08-16T16:20:27.554Z,47.65
2022-08-16T16:23:04.413Z,48.28
2022-08-16T16:25:39.030Z,48.09
2022-08-16T16:28:12.761Z,48.21
2022-08-16T16:30:44.459Z,48.84
2022-08-16T16:33:21.231Z,49.24
2022-08-16T16:35:55.426Z,49.26
2022-08-16T16:38:30.879Z,49.88
2022-08-16T16:41:04.794Z,49.32
2022-08-16T16:43:42.397Z,50.04
2022-08-16T16:46:40.772Z,51.52
2022-08-16T16:48:59.939Z,52.41
2022-08-16T16:51:28.073Z,51.98
2022-08-16T16:53:57.032Z,52.65
2022-08-16T16:56:30.168Z,54.55
2022-08-16T16:59:01.730Z,52.95
2022-08-16T17:01:57.742Z,52.72
2022-08-16T17:04:31.711Z,52.84
2022-08-16T17:07:00.999Z,52.07
2022-08-16T17:09:27.887Z,52.04
2022-08-16T17:11:55.944Z,52.07
2022-08-16T17:14:32.689Z,52.51
2022-08-16T17:17:04.284Z,52.91
2022-08-16T17:19:32.011Z,53.07
2022-08-16T17:22:00.293Z,53.25
2022-08-16T17:24:39.404Z,53.46
2022-08-16T17:27:08.491Z,53.27
2022-08-16T17:29:42.904Z,53.72
2022-08-16T17:32:46.845Z,54.36
2022-08-16T17:35:08.555Z,53.73
2022-08-16T17:37:42.229Z,57.09
2022-08-16T17:40:40.837Z,59.90
2022-08-16T17:43:03.811Z,61.54
2022-08-16T17:45:31.349Z,61.28
2022-08-16T17:48:16.820Z,61.09
2022-08-16T17:51:03.203Z,61.87
2022-08-16T17:53:31.744Z,62.47
2022-08-16T17:55:59.462Z,62.47
2022-08-16T17:58:26.616Z,63.47
2022-08-16T18:00:56.366Z,64.37
2022-08-16T18:04:06.405Z,65.13
2022-08-16T18:06:24.948Z,65.44
2022-08-16T18:09:01.662Z,66.43
2022-08-16T18:11:34.043Z,65.92
2022-08-16T18:14:00.974Z,66.00
2022-08-16T18:16:27.773Z,66.88
2022-08-16T18:18:54.591Z,66.05
2022-08-16T18:21:40.531Z,65.87
2022-08-16T18:24:08.359Z,65.98
2022-08-16T18:26:35.863Z,66.24
2022-08-16T18:29:03.128Z,66.70
2022-08-16T18:31:33.092Z,66.81
2022-08-16T18:34:01.287Z,67.75
2022-08-16T18:36:28.473Z,67.68
2022-08-16T18:38:55.589Z,67.72
2022-08-16T18:41:24.734Z,68.23
2022-08-16T18:44:24.022Z,68.69
2022-08-16T18:46:43.720Z,69.20
2022-08-16T18:49:13.168Z,69.50
2022-08-16T18:51:45.677Z,69.11
2022-08-16T18:54:18.108Z,69.55
2022-08-16T18:56:55.125Z,69.61
2022-08-16T18:59:27.970Z,69.90
2022-08-16T19:02:00.245Z,70.19
2022-08-16T19:04:47.772Z,68.92
2022-08-16T19:07:31.302Z,70.17
2022-08-16T19:10:00.438Z,70.06
2022-08-16T19:12:38.603Z,70.18
2022-08-16T19:15:14.372Z,69.89
2022-08-16T19:17:43.068Z,68.46
2022-08-16T19:20:11.172Z,67.70
2022-08-16T19:23:02.367Z,68.26
2022-08-16T19:25:47.676Z,68.39
2022-08-16T19:28:49.879Z,66.58
2022-08-16T19:31:06.461Z,68.04
2022-08-16T19:33:33.220Z,67.71
2022-08-16T19:36:00.630Z,69.23
2022-08-16T19:38:29.297Z,69.35
2022-08-16T19:40:56.210Z,69.42
2022-08-16T19:43:22.935Z,69.73
2022-08-16T19:45:51.942Z,70.25
2022-08-16T19:48:18.844Z,70.59
2022-08-16T19:50:45.577Z,69.84
2022-08-16T19:53:18.837Z,69.33
2022-08-16T19:55:47.603Z,70.52
2022-08-16T19:58:15.540Z,69.82
2022-08-16T20:00:43.530Z,70.19
2022-08-16T20:03:17.175Z,70.28
2022-08-16T20:05:44.998Z,70.57
2022-08-16T20:08:12.728Z,70.45
2022-08-16T20:10:42.617Z,70.35
2022-08-16T20:13:27.375Z,70.29
2022-08-16T20:15:54.237Z,71.00
2022-08-16T20:18:24.640Z,71.13
2022-08-16T20:20:51.907Z,71.48
2022-08-16T20:23:25.509Z,71.71
2022-08-16T20:25:55.827Z,71.11
2022-08-16T20:28:51.834Z,70.41
2022-08-16T20:31:11.530Z,70.64
2022-08-16T20:33:38.323Z,70.88
2022-08-16T20:36:05.275Z,70.97
2022-08-16T20:38:31.976Z,71.79
2022-08-16T20:40:58.763Z,72.03
2022-08-16T20:43:25.481Z,71.71
2022-08-16T20:45:52.371Z,72.13
2022-08-16T20:48:20.260Z,72.44
2022-08-16T20:50:46.950Z,72.33
2022-08-16T20:53:13.660Z,72.40
2022-08-16T20:55:41.669Z,72.33
2022-08-16T20:58:08.667Z,72.28
2022-08-16T21:00:35.601Z,72.29
2022-08-16T21:03:13.042Z,72.63
2022-08-16T21:05:39.995Z,73.13
2022-08-16T21:08:50.930Z,73.05
2022-08-16T21:10:54.802Z,73.32
2022-08-16T21:13:21.853Z,73.21
2022-08-16T21:15:49.042Z,73.54
2022-08-16T21:18:16.124Z,73.24
2022-08-16T21:20:45.862Z,73.15
2022-08-16T21:23:12.586Z,73.71
2022-08-16T21:25:58.106Z,73.38
2022-08-16T21:28:40.878Z,73.49
2022-08-16T21:31:15.864Z,73.65
2022-08-16T21:33:43.571Z,73.84
2022-08-16T21:36:11.882Z,73.70
2022-08-16T21:38:39.729Z,73.45
2022-08-16T21:41:08.298Z,73.35
2022-08-16T21:43:35.354Z,73.63
2022-08-16T21:46:04.381Z,74.06
2022-08-16T21:48:35.819Z,73.93
2022-08-16T21:51:09.092Z,73.35
2022-08-16T21:53:36.346Z,73.56
2022-08-16T21:56:06.572Z,73.64
2022-08-16T21:58:35.682Z,73.81
2022-08-16T22:01:03.016Z,73.58
2022-08-16T22:03:32.937Z,73.50
2022-08-16T22:06:11.917Z,73.91
2022-08-16T22:08:50.267Z,73.97
2022-08-16T22:11:23.474Z,74.07
2022-08-16T22:13:58.868Z,74.67
2022-08-16T22:16:33.027Z,74.67
2022-08-16T22:19:01.326Z,74.48
2022-08-16T22:21:28.686Z,74.80
2022-08-16T22:23:57.820Z,74.82
2022-08-16T22:26:32.161Z,74.79
2022-08-16T22:29:01.994Z,74.63
2022-08-16T22:31:29.105Z,74.51
2022-08-16T22:33:56.701Z,74.36
2022-08-16T22:36:28.151Z,74.05
2022-08-16T22:38:58.802Z,74.00
2022-08-16T22:41:28.368Z,73.93
2022-08-16T22:43:55.764Z,74.12
2022-08-16T22:46:22.476Z,73.59
2022-08-16T22:48:51.214Z,73.82
2022-08-16T22:51:20.232Z,74.10
2022-08-16T22:53:48.011Z,74.47
2022-08-16T22:56:18.114Z,74.21
2022-08-16T22:58:46.043Z,73.86
2022-08-16T23:01:14.794Z,74.31
2022-08-16T23:03:42.492Z,74.16
2022-08-16T23:06:11.918Z,74.11
2022-08-16T23:08:41.429Z,74.33
2022-08-16T23:11:22.667Z,74.37
2022-08-16T23:13:54.721Z,74.92
2022-08-16T23:16:32.232Z,74.65
2022-08-16T23:19:12.292Z,75.13
2022-08-16T23:21:42.618Z,75.12
2022-08-16T23:24:12.146Z,75.19
2022-08-16T23:26:45.942Z,75.01
2022-08-16T23:29:26.286Z,74.98
2022-08-16T23:31:59.336Z,74.99
2022-08-16T23:34:27.938Z,75.11
2022-08-16T23:36:55.439Z,75.36
2022-08-16T23:39:22.547Z,75.44
2022-08-16T23:41:49.422Z,75.18
2022-08-16T23:44:56.122Z,75.02
2022-08-16T23:47:05.884Z,75.15
2022-08-16T23:49:59.360Z,74.91
2022-08-16T23:52:43.743Z,74.80
2022-08-16T23:55:08.333Z,74.83
2022-08-16T23:57:35.839Z,75.02
